Time;durP1;ratioP1;P1;durP2;ratioP2;P2;SDS_P1;SDS_P2;PMS_P1;PMS_P2;Temp;Humidity;BMP_temperature;BMP_pressure;BME280_temperature;BME280_humidity;BME280_pressure;Samples;Min_cycle;Max_cycle;Signal;HPM_P1;HPM_P2
2022/12/13 00:00:34;;;;;;;53.60;30.20;;;-1.50;87.70;;;;;;5053384;28;20404;-72
2022/12/13 00:03:00;;;;;;;54.85;29.83;;;-1.50;87.10;;;;;;5051769;28;20397;-72
2022/12/13 00:05:25;;;;;;;51.05;29.30;;;-1.50;87.20;;;;;;5053574;28;20419;-73
2022/12/13 00:07:51;;;;;;;52.50;28.17;;;-1.50;87.10;;;;;;5053866;28;20445;-72
2022/12/13 00:10:16;;;;;;;57.43;29.40;;;-1.60;87.20;;;;;;5054120;28;20464;-71
2022/12/13 00:12:42;;;;;;;55.60;30.47;;;-1.60;87.90;;;;;;5053601;28;20381;-71
2022/12/13 00:15:08;;;;;;;53.67;28.63;;;-1.60;87.50;;;;;;5053612;28;20377;-72
2022/12/13 00:17:34;;;;;;;52.17;29.10;;;-1.60;87.10;;;;;;5053435;28;20877;-71
2022/12/13 00:19:59;;;;;;;56.20;28.90;;;-1.60;86.10;;;;;;5053225;28;20392;-73
2022/12/13 00:22:25;;;;;;;59.53;29.80;;;-1.50;86.10;;;;;;5052650;28;20452;-72
2022/12/13 00:24:53;;;;;;;52.08;29.73;;;-1.50;86.80;;;;;;5053167;28;20389;-72
2022/12/13 00:27:19;;;;;;;54.85;27.70;;;-1.60;85.20;;;;;;5052925;28;20413;-72
2022/12/13 00:29:44;;;;;;;49.57;27.70;;;-1.60;84.90;;;;;;5052781;28;20388;-72
2022/12/13 00:32:10;;;;;;;54.80;30.48;;;-1.70;84.70;;;;;;5052649;28;20400;-72
2022/12/13 00:34:36;;;;;;;54.85;29.63;;;-1.70;86.00;;;;;;5052666;28;20385;-73
2022/12/13 00:37:01;;;;;;;56.50;30.42;;;-1.70;86.70;;;;;;5053150;28;20384;-72
2022/12/13 00:39:27;;;;;;;54.27;29.90;;;-1.70;86.80;;;;;;5052767;28;20825;-72
2022/12/13 00:41:53;;;;;;;60.28;31.55;;;-1.70;87.20;;;;;;5052215;28;20444;-71
2022/12/13 00:44:19;;;;;;;52.10;29.37;;;-1.70;87.00;;;;;;5051505;28;20421;-73
2022/12/13 00:46:44;;;;;;;54.05;29.65;;;-1.70;86.00;;;;;;5053029;28;20416;-71
2022/12/13 00:49:11;;;;;;;53.10;30.38;;;-1.80;85.50;;;;;;5052725;28;20935;-72
2022/12/13 00:51:37;;;;;;;56.65;30.63;;;-1.80;85.80;;;;;;5052084;28;20798;-71
2022/12/13 00:54:04;;;;;;;56.67;31.07;;;-1.80;86.00;;;;;;5051936;28;20476;-71
2022/12/13 00:56:31;;;;;;;58.27;30.30;;;-1.80;86.50;;;;;;5054852;28;20418;-71
2022/12/13 00:58:57;;;;;;;57.95;29.83;;;-1.80;87.00;;;;;;5053610;28;20377;-72
2022/12/13 01:01:29;;;;;;;59.75;31.70;;;-1.80;87.10;;;;;;5052014;28;20938;-72
2022/12/13 01:03:56;;;;;;;57.75;30.35;;;-1.80;87.70;;;;;;5052493;28;20440;-72
2022/12/13 01:06:38;;;;;;;59.90;31.38;;;-1.80;87.20;;;;;;5052603;28;20750;-72
2022/12/13 01:09:06;;;;;;;61.05;31.45;;;-1.80;86.70;;;;;;5052140;28;20417;-72
2022/12/13 01:11:32;;;;;;;53.17;30.00;;;-1.70;87.60;;;;;;5051908;28;20761;-73
2022/12/13 01:13:57;;;;;;;55.83;30.23;;;-1.70;86.80;;;;;;5052520;28;20373;-71
2022/12/13 01:16:23;;;;;;;59.03;31.40;;;-1.70;86.70;;;;;;5052642;28;20378;-72
2022/12/13 01:18:48;;;;;;;59.47;31.40;;;-1.70;85.60;;;;;;5052293;28;20374;-72
2022/12/13 01:21:17;;;;;;;58.87;31.80;;;-1.70;85.60;;;;;;5051603;28;20378;-72
2022/12/13 01:23:43;;;;;;;55.20;30.45;;;-1.80;85.80;;;;;;5052277;28;20377;-72
2022/12/13 01:26:12;;;;;;;56.87;31.07;;;-1.70;85.90;;;;;;5052313;28;20389;-72
2022/12/13 01:28:38;;;;;;;57.08;30.98;;;-1.70;84.00;;;;;;5051863;28;20400;-72
2022/12/13 01:31:08;;;;;;;58.55;31.92;;;-1.70;84.70;;;;;;5051617;28;20556;-72
2022/12/13 01:33:34;;;;;;;54.97;29.92;;;-1.70;84.90;;;;;;5051881;28;20439;-72
2022/12/13 01:36:01;;;;;;;54.10;30.30;;;-1.70;83.90;;;;;;5052035;28;20398;-71
2022/12/13 01:38:27;;;;;;;58.60;32.00;;;-1.70;83.80;;;;;;5051987;28;20451;-72
2022/12/13 01:40:56;;;;;;;60.80;32.10;;;-1.80;83.90;;;;;;5051053;28;20469;-72
2022/12/13 01:43:45;;;;;;;56.15;30.77;;;-1.90;84.70;;;;;;5051722;28;20386;-75
2022/12/13 01:46:12;;;;;;;56.88;30.38;;;-1.90;85.40;;;;;;5050761;28;20890;-71
2022/12/13 01:49:07;;;;;;;56.38;30.50;;;-1.90;86.00;;;;;;5051383;28;20427;-71
2022/12/13 01:51:43;;;;;;;53.97;28.75;;;-1.90;85.50;;;;;;5049609;28;20476;-72
2022/12/13 01:54:14;;;;;;;55.00;30.63;;;-1.90;84.70;;;;;;5051862;28;20883;-71
2022/12/13 01:56:47;;;;;;;58.60;31.80;;;-2.00;84.90;;;;;;5051424;28;20386;-71
2022/12/13 01:59:14;;;;;;;59.42;31.52;;;-2.10;86.50;;;;;;5051400;28;20668;-72
2022/12/13 02:01:40;;;;;;;55.45;31.42;;;-2.10;86.40;;;;;;5050855;28;20392;-72
2022/12/13 02:04:07;;;;;;;60.75;32.10;;;-2.10;86.40;;;;;;5049792;28;20728;-71
2022/12/13 02:06:33;;;;;;;62.55;32.13;;;-2.20;87.50;;;;;;5051318;28;20408;-71
2022/12/13 02:09:01;;;;;;;58.10;31.52;;;-2.00;87.70;;;;;;5051400;28;20468;-72
2022/12/13 02:11:27;;;;;;;59.47;31.77;;;-2.00;87.30;;;;;;5051058;28;20389;-72
2022/12/13 02:13:53;;;;;;;60.23;32.17;;;-2.10;87.30;;;;;;5052671;28;20400;-71
2022/12/13 02:16:42;;;;;;;58.85;33.03;;;-2.20;87.20;;;;;;5059965;28;20385;-72
2022/12/13 02:19:46;;;;;;;65.33;33.90;;;-2.10;87.00;;;;;;5054762;28;20694;-71
2022/12/13 02:22:49;;;;;;;62.58;31.85;;;-2.10;87.70;;;;;;5049748;28;20389;-72
2022/12/13 02:25:42;;;;;;;59.53;31.77;;;-2.20;87.90;;;;;;5056819;28;20377;-72
2022/12/13 02:28:47;;;;;;;64.10;33.35;;;-2.20;88.60;;;;;;5056743;28;20512;-71
2022/12/13 02:31:36;;;;;;;64.32;32.60;;;-2.20;90.10;;;;;;5053530;28;20405;-72
2022/12/13 02:34:07;;;;;;;58.20;31.60;;;-2.20;90.10;;;;;;5052997;28;20767;-72
2022/12/13 02:36:45;;;;;;;61.28;30.70;;;-2.20;89.10;;;;;;5053993;28;20378;-70
2022/12/13 02:39:20;;;;;;;59.10;31.92;;;-2.10;88.30;;;;;;5053627;28;20867;-71
2022/12/13 02:42:02;;;;;;;63.50;32.10;;;-2.20;88.90;;;;;;5051286;28;20925;-72
2022/12/13 02:44:34;;;;;;;61.08;31.92;;;-2.30;90.10;;;;;;5051461;28;20427;-72
2022/12/13 02:47:22;;;;;;;59.47;32.63;;;-2.30;91.10;;;;;;5051587;28;20448;-73
2022/12/13 02:49:50;;;;;;;60.70;32.45;;;-2.30;90.30;;;;;;5050661;28;20456;-71
2022/12/13 02:52:21;;;;;;;58.78;31.17;;;-2.30;90.20;;;;;;5050405;28;20377;-73
2022/12/13 02:54:47;;;;;;;59.97;32.90;;;-2.30;90.70;;;;;;5050880;28;20408;-72
2022/12/13 02:57:27;;;;;;;64.50;31.90;;;-2.30;90.40;;;;;;5049935;28;20405;-71
2022/12/13 02:59:53;;;;;;;62.88;32.58;;;-2.30;89.70;;;;;;5049278;28;20416;-71
2022/12/13 03:02:50;;;;;;;57.10;30.90;;;-2.30;89.20;;;;;;5050188;28;20404;-71
2022/12/13 03:06:28;;;;;;;75.22;32.95;;;-2.30;89.00;;;;;;5050657;28;20377;-72
2022/12/13 03:08:51;;;;;;;62.22;31.65;;;-2.40;88.70;;;;;;5050295;28;20588;-72
2022/12/13 03:11:18;;;;;;;63.65;32.65;;;-2.40;89.20;;;;;;5050977;28;20384;-72
2022/12/13 03:13:48;;;;;;;58.72;31.23;;;-2.50;90.00;;;;;;5051158;28;20391;-72
2022/12/13 03:16:25;;;;;;;62.47;33.00;;;-2.50;90.30;;;;;;5049900;28;20393;-72
2022/12/13 03:18:57;;;;;;;63.22;33.05;;;-2.50;90.70;;;;;;5051475;28;20390;-72
2022/12/13 03:21:24;;;;;;;57.03;29.92;;;-2.40;90.00;;;;;;5050775;28;20393;-72
2022/12/13 03:23:50;;;;;;;61.63;31.92;;;-2.40;89.90;;;;;;5049686;28;20440;-72
2022/12/13 03:26:26;;;;;;;56.78;31.33;;;-2.40;89.00;;;;;;5050973;28;20394;-71
2022/12/13 03:28:52;;;;;;;57.13;30.60;;;-2.40;88.60;;;;;;5051015;28;20385;-72
2022/12/13 03:31:18;;;;;;;59.70;31.45;;;-2.40;88.30;;;;;;5050922;28;20461;-72
2022/12/13 03:33:44;;;;;;;61.45;30.77;;;-2.40;88.10;;;;;;5051244;28;20381;-71
2022/12/13 03:36:11;;;;;;;65.88;32.40;;;-2.40;86.80;;;;;;5050567;28;20381;-71
2022/12/13 03:38:38;;;;;;;75.97;32.57;;;-2.30;86.30;;;;;;5049983;28;20476;-72
2022/12/13 03:41:09;;;;;;;59.17;31.80;;;-2.30;85.40;;;;;;5050180;28;20759;-71
2022/12/13 03:43:34;;;;;;;60.58;31.45;;;-2.50;85.70;;;;;;5050096;28;20428;-72
2022/12/13 03:46:00;;;;;;;61.40;32.07;;;-2.50;87.20;;;;;;5050164;28;20597;-72
2022/12/13 03:48:26;;;;;;;59.47;31.70;;;-2.50;87.00;;;;;;5048848;28;20406;-72
2022/12/13 03:50:53;;;;;;;56.28;30.40;;;-2.50;87.00;;;;;;5049600;28;20468;-71
2022/12/13 03:53:19;;;;;;;61.17;32.20;;;-2.50;87.10;;;;;;5050935;28;20796;-71
2022/12/13 03:55:46;;;;;;;61.60;31.92;;;-2.50;87.00;;;;;;5050413;28;20385;-72
2022/12/13 03:58:11;;;;;;;60.13;32.60;;;-2.50;87.70;;;;;;5049953;28;20388;-72
2022/12/13 04:00:37;;;;;;;59.63;31.30;;;-2.50;86.60;;;;;;5049773;28;20389;-72
2022/12/13 04:03:03;;;;;;;65.03;31.70;;;-2.50;86.90;;;;;;5049765;28;20393;-71
2022/12/13 04:05:29;;;;;;;62.75;32.55;;;-2.60;86.70;;;;;;5049968;28;20754;-71
2022/12/13 04:07:55;;;;;;;58.22;30.42;;;-2.60;86.00;;;;;;5049966;28;20408;-71
2022/12/13 04:10:20;;;;;;;56.33;30.20;;;-2.60;87.10;;;;;;5053644;28;20373;-71
2022/12/13 04:15:30;;;;;;;58.33;31.30;;;-2.60;85.50;;;;;;5053358;28;20412;-71
2022/12/13 04:17:56;;;;;;;57.97;31.23;;;-2.60;85.10;;;;;;5053463;28;20769;-72
2022/12/13 04:20:21;;;;;;;57.67;31.17;;;-2.60;85.30;;;;;;5053481;28;20443;-71
2022/12/13 04:22:47;;;;;;;61.57;31.70;;;-2.70;86.20;;;;;;5052382;28;20862;-71
2022/12/13 04:25:13;;;;;;;60.67;32.20;;;-2.70;85.90;;;;;;5053502;28;20394;-71
2022/12/13 04:27:39;;;;;;;56.70;30.88;;;-2.60;86.20;;;;;;5053021;28;20416;-72
2022/12/13 04:30:05;;;;;;;65.60;32.28;;;-2.70;86.60;;;;;;5053228;28;20862;-72
2022/12/13 04:32:31;;;;;;;60.38;31.42;;;-2.60;85.20;;;;;;5052621;28;20381;-71
2022/12/13 04:34:57;;;;;;;63.77;31.30;;;-2.60;84.20;;;;;;5051938;28;20809;-71
2022/12/13 04:37:22;;;;;;;62.92;31.45;;;-2.60;84.00;;;;;;5054209;28;20386;-72
2022/12/13 04:39:48;;;;;;;63.50;31.83;;;-2.60;84.70;;;;;;5052908;28;20431;-71
2022/12/13 04:42:14;;;;;;;59.60;31.70;;;-2.70;84.80;;;;;;5052324;28;20464;-71
2022/12/13 04:44:40;;;;;;;57.20;31.40;;;-2.70;85.10;;;;;;5052846;28;20389;-71
2022/12/13 04:47:05;;;;;;;59.95;31.55;;;-2.80;85.40;;;;;;5052593;28;20402;-71
2022/12/13 04:49:31;;;;;;;56.77;31.07;;;-2.80;85.40;;;;;;5052854;28;20381;-71
2022/12/13 04:51:57;;;;;;;55.67;30.25;;;-2.80;85.40;;;;;;5052053;28;20416;-71
2022/12/13 04:54:23;;;;;;;58.03;31.23;;;-2.80;84.60;;;;;;5052733;28;20378;-72
2022/12/13 04:56:48;;;;;;;62.20;31.10;;;-2.90;84.50;;;;;;5052401;28;20866;-71
2022/12/13 04:59:15;;;;;;;60.70;31.60;;;-2.90;84.30;;;;;;5052580;28;20743;-72
2022/12/13 05:01:40;;;;;;;54.35;29.65;;;-2.90;83.60;;;;;;5051948;28;20803;-71
2022/12/13 05:04:06;;;;;;;57.73;30.90;;;-2.70;80.70;;;;;;5052617;28;20468;-71
2022/12/13 05:06:32;;;;;;;60.97;31.10;;;-2.70;80.50;;;;;;5052465;28;20377;-71
2022/12/13 05:08:57;;;;;;;56.58;30.73;;;-2.80;80.70;;;;;;5052022;28;20381;-71
2022/12/13 05:11:23;;;;;;;56.33;30.90;;;-2.80;80.70;;;;;;5051810;28;20386;-71
2022/12/13 05:13:49;;;;;;;65.18;30.88;;;-2.70;80.10;;;;;;5052280;28;20874;-71
2022/12/13 05:16:15;;;;;;;50.47;28.75;;;-2.70;80.10;;;;;;5052626;28;20476;-71
2022/12/13 05:18:41;;;;;;;57.43;29.53;;;-2.70;79.20;;;;;;5053004;28;20469;-71
2022/12/13 05:21:09;;;;;;;56.83;30.07;;;-2.70;79.30;;;;;;5050513;28;20385;-71
2022/12/13 05:23:35;;;;;;;55.23;30.37;;;-2.70;80.20;;;;;;5052332;28;20412;-71
2022/12/13 05:26:01;;;;;;;60.17;30.70;;;-2.70;80.50;;;;;;5052821;28;20389;-72
2022/12/13 05:28:27;;;;;;;55.50;29.63;;;-2.70;81.70;;;;;;5052386;28;20464;-71
2022/12/13 05:30:54;;;;;;;57.80;30.60;;;-2.70;81.80;;;;;;5051821;28;20800;-71
2022/12/13 05:33:20;;;;;;;61.45;31.05;;;-2.80;81.90;;;;;;5052676;28;20401;-72
2022/12/13 05:35:46;;;;;;;62.97;31.73;;;-2.80;82.70;;;;;;5053290;28;20381;-72
2022/12/13 05:38:11;;;;;;;62.77;32.17;;;-2.80;83.20;;;;;;5052100;28;20392;-72
2022/12/13 05:40:37;;;;;;;60.20;31.07;;;-2.80;84.10;;;;;;5052344;28;20401;-72
2022/12/13 05:43:03;;;;;;;55.45;30.05;;;-2.90;84.10;;;;;;5050953;28;20706;-71
2022/12/13 05:45:30;;;;;;;59.53;30.08;;;-2.90;84.90;;;;;;5052449;28;20386;-71
2022/12/13 05:47:55;;;;;;;65.30;31.38;;;-2.90;84.10;;;;;;5051419;28;20397;-72
2022/12/13 05:50:21;;;;;;;60.93;31.43;;;-2.90;83.60;;;;;;5051952;28;20741;-73
2022/12/13 05:52:46;;;;;;;58.43;30.30;;;-2.90;83.10;;;;;;5051529;28;20687;-72
2022/12/13 05:55:12;;;;;;;59.60;30.63;;;-2.90;83.90;;;;;;5052201;28;20389;-73
2022/12/13 05:57:37;;;;;;;60.70;31.02;;;-2.90;82.60;;;;;;5050954;28;20789;-71
2022/12/13 06:00:06;;;;;;;61.90;32.60;;;-2.80;84.00;;;;;;5051471;28;20440;-72
2022/12/13 06:02:36;;;;;;;59.97;31.23;;;-2.80;82.20;;;;;;5051665;28;20390;-72
2022/12/13 06:05:02;;;;;;;61.05;32.60;;;-2.90;81.80;;;;;;5052732;28;20447;-72
2022/12/13 06:07:28;;;;;;;70.80;33.70;;;-2.90;82.20;;;;;;5052909;28;20409;-72
2022/12/13 06:09:53;;;;;;;67.70;33.13;;;-3.00;82.80;;;;;;5050319;28;20396;-71
2022/12/13 06:12:19;;;;;;;66.83;33.70;;;-2.90;82.90;;;;;;5050680;28;20437;-72
2022/12/13 06:14:44;;;;;;;59.97;31.90;;;-2.90;81.50;;;;;;5051249;28;20416;-72
2022/12/13 06:17:10;;;;;;;62.63;32.58;;;-3.00;81.40;;;;;;5051231;28;20863;-71
2022/12/13 06:19:36;;;;;;;66.10;34.40;;;-3.00;81.40;;;;;;5051320;28;20861;-71
2022/12/13 06:22:01;;;;;;;68.80;32.90;;;-3.00;82.20;;;;;;5050800;28;20378;-72
2022/12/13 06:24:27;;;;;;;61.80;33.08;;;-3.00;81.90;;;;;;5049953;28;20413;-72
2022/12/13 06:26:52;;;;;;;70.80;32.50;;;-3.00;81.00;;;;;;5051140;28;20460;-72
2022/12/13 06:29:20;;;;;;;60.37;33.20;;;-3.10;81.60;;;;;;5051425;28;20385;-71
2022/12/13 06:31:46;;;;;;;65.45;33.10;;;-3.10;82.90;;;;;;5050295;28;20401;-71
2022/12/13 06:34:12;;;;;;;61.30;32.70;;;-3.10;82.30;;;;;;5051108;28;20412;-72
2022/12/13 06:36:37;;;;;;;64.18;33.30;;;-2.90;85.20;;;;;;5051244;28;20955;-72
2022/12/13 06:39:04;;;;;;;65.33;32.10;;;-2.90;81.80;;;;;;5050904;28;20390;-73
2022/12/13 06:41:30;;;;;;;62.00;32.33;;;-3.00;79.80;;;;;;5050153;28;20423;-73
2022/12/13 06:43:57;;;;;;;69.35;33.97;;;-3.10;81.20;;;;;;5050996;28;20381;-72
2022/12/13 06:46:22;;;;;;;66.43;33.63;;;-3.20;81.70;;;;;;5050723;28;20496;-73
2022/12/13 06:48:48;;;;;;;62.25;32.45;;;-3.10;83.20;;;;;;5050607;28;20420;-72
2022/12/13 06:51:14;;;;;;;68.15;33.58;;;-3.10;83.60;;;;;;5050001;28;20454;-72
2022/12/13 06:53:40;;;;;;;64.22;32.58;;;-3.20;81.60;;;;;;5050438;28;20378;-72
2022/12/13 06:56:11;;;;;;;67.95;33.80;;;-3.10;81.80;;;;;;5050930;28;20886;-72
2022/12/13 06:58:38;;;;;;;62.47;32.50;;;-3.10;80.60;;;;;;5048844;28;20384;-72
2022/12/13 07:01:06;;;;;;;66.13;34.25;;;-3.20;80.30;;;;;;5049985;28;20385;-72
2022/12/13 07:03:33;;;;;;;64.60;34.23;;;-3.20;79.80;;;;;;5050125;28;20865;-72
2022/12/13 07:06:02;;;;;;;65.38;34.22;;;-3.20;80.60;;;;;;5050580;28;20750;-73
2022/12/13 07:08:28;;;;;;;65.85;34.40;;;-3.20;81.20;;;;;;5050578;28;20885;-72
2022/12/13 07:10:54;;;;;;;70.15;33.92;;;-3.20;81.60;;;;;;5050013;28;20392;-72
2022/12/13 07:13:20;;;;;;;69.70;35.30;;;-3.30;81.30;;;;;;5050274;28;20384;-71
2022/12/13 07:15:46;;;;;;;67.68;34.22;;;-3.20;81.70;;;;;;5050231;28;20389;-74
2022/12/13 07:18:11;;;;;;;65.40;33.58;;;-3.20;82.90;;;;;;5050387;28;20428;-72
2022/12/13 07:20:40;;;;;;;64.50;33.70;;;-3.20;83.30;;;;;;5050178;28;20667;-73
2022/12/13 07:23:06;;;;;;;70.45;33.75;;;-3.20;80.30;;;;;;5049676;28;20385;-72
2022/12/13 07:25:32;;;;;;;60.30;33.17;;;-3.20;81.60;;;;;;5050307;28;20447;-72
2022/12/13 07:28:00;;;;;;;61.05;33.58;;;-3.30;79.60;;;;;;5050783;28;20408;-73
2022/12/13 07:30:25;;;;;;;64.28;33.92;;;-3.30;79.30;;;;;;5051124;28;20385;-72
2022/12/13 07:32:51;;;;;;;61.10;33.08;;;-3.20;81.90;;;;;;5050768;28;20447;-74
2022/12/13 07:35:16;;;;;;;63.60;33.47;;;-3.10;80.20;;;;;;5050934;28;20964;-72
2022/12/13 07:37:42;;;;;;;68.20;33.77;;;-3.10;79.70;;;;;;5050047;28;20389;-72
2022/12/13 07:40:09;;;;;;;62.92;32.30;;;-3.30;78.20;;;;;;5049735;28;20490;-71
2022/12/13 07:42:34;;;;;;;71.25;35.67;;;-3.30;79.10;;;;;;5049426;28;20866;-71
2022/12/13 07:45:00;;;;;;;71.07;34.75;;;-3.40;79.90;;;;;;5052699;28;20476;-71
2022/12/13 07:47:30;;;;;;;69.90;34.38;;;-3.40;81.10;;;;;;5060358;28;20487;-72
2022/12/13 07:49:56;;;;;;;73.00;35.77;;;-3.40;81.30;;;;;;5062811;28;20401;-73
2022/12/13 07:52:21;;;;;;;67.32;35.25;;;-3.30;82.10;;;;;;5053087;28;20391;-71
2022/12/13 07:54:47;;;;;;;66.10;33.17;;;-3.30;81.60;;;;;;5057223;28;20799;-74
2022/12/13 07:57:12;;;;;;;65.80;31.30;;;-3.30;81.90;;;;;;5065061;28;20476;-71
2022/12/13 07:59:38;;;;;;;62.40;31.80;;;-3.10;81.60;;;;;;5054524;28;20385;-71
2022/12/13 08:02:05;;;;;;;65.27;32.40;;;-3.20;80.00;;;;;;5068078;28;20395;-73
2022/12/13 08:04:31;;;;;;;70.32;34.15;;;-3.20;78.50;;;;;;5071873;28;20898;-72
2022/12/13 08:06:56;;;;;;;75.83;34.27;;;-3.20;80.20;;;;;;5043543;28;20425;-74
2022/12/13 08:09:22;;;;;;;63.85;32.63;;;-3.20;78.80;;;;;;5050858;28;20465;-71
2022/12/13 08:11:48;;;;;;;71.50;33.60;;;-3.20;78.00;;;;;;5052660;28;20444;-72
2022/12/13 08:14:14;;;;;;;72.45;35.08;;;-3.20;79.30;;;;;;5052386;28;20405;-73
2022/12/13 08:16:39;;;;;;;61.58;32.88;;;-3.10;80.80;;;;;;5051043;28;20421;-73
2022/12/13 08:19:05;;;;;;;70.20;34.27;;;-3.10;80.10;;;;;;5050837;28;20396;-73
2022/12/13 08:21:35;;;;;;;65.25;34.42;;;-3.10;79.30;;;;;;5050729;28;20390;-71
2022/12/13 08:24:01;;;;;;;70.72;32.03;;;-3.00;77.40;;;;;;5063489;28;20419;-73
2022/12/13 08:26:27;;;;;;;57.15;30.90;;;-2.90;75.20;;;;;;5069981;28;20431;-72
2022/12/13 08:28:52;;;;;;;62.30;30.13;;;-2.80;72.40;;;;;;5066008;28;20406;-72
2022/12/13 08:31:18;;;;;;;53.08;29.73;;;-2.70;71.70;;;;;;5060670;28;20388;-73
2022/12/13 08:33:45;;;;;;;58.90;28.75;;;-2.70;71.20;;;;;;5071431;28;20384;-73
2022/12/13 08:36:17;;;;;;;56.30;29.45;;;-2.60;69.70;;;;;;5071895;28;20394;-73
2022/12/13 08:38:45;;;;;;;52.20;28.77;;;-2.50;68.50;;;;;;5051603;28;20401;-74
2022/12/13 08:41:11;;;;;;;51.05;27.73;;;-2.50;69.20;;;;;;5084684;22;20435;-77
2022/12/13 08:43:37;;;;;;;53.33;28.42;;;-2.40;66.10;;;;;;5076999;28;20387;-76
2022/12/13 08:46:04;;;;;;;51.65;27.42;;;-2.40;65.30;;;;;;5077346;28;20371;-75
2022/12/13 08:48:29;;;;;;;56.20;27.70;;;-2.40;65.90;;;;;;5078698;28;20525;-76
2022/12/13 08:51:00;;;;;;;57.53;28.80;;;-2.10;63.60;;;;;;5062869;28;20393;-76
2022/12/13 08:53:25;;;;;;;52.63;27.10;;;-2.10;61.90;;;;;;5055994;28;20455;-76
2022/12/13 08:55:51;;;;;;;45.40;26.90;;;-2.00;61.60;;;;;;5058131;28;20381;-77
2022/12/13 08:58:16;;;;;;;49.60;26.00;;;-1.90;62.10;;;;;;5060577;28;20400;-73
2022/12/13 09:00:44;;;;;;;45.73;24.77;;;-1.20;64.90;;;;;;5060621;28;20388;-75
2022/12/13 09:03:09;;;;;;;45.35;24.23;;;0.10;51.20;;;;;;5042139;28;20391;-74
2022/12/13 09:05:35;;;;;;;50.00;25.70;;;0.50;43.20;;;;;;5060736;28;20405;-74
2022/12/13 09:08:02;;;;;;;47.47;25.40;;;0.30;43.10;;;;;;5058222;28;20412;-73
2022/12/13 09:10:29;;;;;;;45.63;24.48;;;0.00;44.60;;;;;;5056113;28;20393;-73
2022/12/13 09:12:58;;;;;;;46.40;23.88;;;-0.50;44.10;;;;;;5058994;28;20762;-74
2022/12/13 09:15:24;;;;;;;41.65;23.13;;;-0.80;46.40;;;;;;5057397;28;20484;-74
2022/12/13 09:17:50;;;;;;;46.40;24.88;;;-1.00;48.40;;;;;;5053485;28;20430;-75
2022/12/13 09:20:16;;;;;;;43.10;23.67;;;-1.00;50.10;;;;;;5052741;28;20409;-74
2022/12/13 09:22:42;;;;;;;45.77;23.90;;;-1.00;51.10;;;;;;5050386;28;20444;-74
2022/12/13 09:25:08;;;;;;;44.08;22.98;;;-1.00;50.30;;;;;;5053934;28;20393;-73
2022/12/13 09:27:34;;;;;;;50.22;24.42;;;-1.00;49.30;;;;;;5053834;28;20412;-73
2022/12/13 09:30:00;;;;;;;44.72;24.70;;;-1.10;48.40;;;;;;5053029;28;20417;-73
2022/12/13 09:32:26;;;;;;;48.40;26.10;;;-1.10;50.30;;;;;;5050871;28;20397;-74
2022/12/13 09:34:52;;;;;;;47.53;26.42;;;-1.00;49.00;;;;;;5046161;28;20891;-74
2022/12/13 09:37:18;;;;;;;47.72;24.85;;;-1.00;49.90;;;;;;5047553;28;20405;-75
2022/12/13 09:39:44;;;;;;;44.17;23.90;;;-1.00;49.90;;;;;;5053219;28;20401;-71
2022/12/13 09:42:26;;;;;;;42.43;23.13;;;-1.00;49.60;;;;;;5065290;28;20420;-74
2022/12/13 09:44:56;;;;;;;43.30;23.55;;;-0.90;49.70;;;;;;5053492;28;20377;-74
2022/12/13 09:47:44;;;;;;;51.20;24.88;;;-1.00;48.80;;;;;;5051621;28;20479;-74
2022/12/13 09:50:28;;;;;;;50.67;24.70;;;-0.90;49.40;;;;;;5040558;28;20410;-74
2022/12/13 09:52:54;;;;;;;43.58;23.58;;;-0.80;48.90;;;;;;5047363;28;20504;-74
2022/12/13 09:55:24;;;;;;;44.30;22.83;;;-0.80;48.20;;;;;;5063070;28;20384;-73
2022/12/13 09:57:51;;;;;;;46.10;24.90;;;-0.70;46.80;;;;;;5065509;28;20377;-75
2022/12/13 10:00:20;;;;;;;45.08;25.02;;;-0.80;47.10;;;;;;5065817;28;20463;-75
2022/12/13 10:02:50;;;;;;;47.20;24.75;;;-0.80;48.80;;;;;;5062388;28;20417;-74
2022/12/13 10:05:25;;;;;;;41.70;24.17;;;-0.70;47.40;;;;;;5061234;28;20429;-73
2022/12/13 10:07:54;;;;;;;43.55;25.40;;;-0.70;48.40;;;;;;5059779;28;20842;-74
2022/12/13 10:10:20;;;;;;;49.83;25.17;;;-0.60;49.80;;;;;;5060619;28;20385;-74
2022/12/13 10:12:53;;;;;;;41.97;23.90;;;-0.50;49.90;;;;;;5059116;28;20873;-74
2022/12/13 10:15:19;;;;;;;46.35;24.85;;;-0.50;48.60;;;;;;5059891;28;20408;-74
2022/12/13 10:17:47;;;;;;;43.70;24.17;;;-0.40;48.50;;;;;;5058829;28;20455;-73
2022/12/13 10:20:20;;;;;;;45.50;24.42;;;-0.30;48.40;;;;;;5062486;28;20465;-74
2022/12/13 10:22:46;;;;;;;41.83;23.73;;;-0.10;48.10;;;;;;5043114;28;20402;-75
2022/12/13 10:25:13;;;;;;;47.63;23.83;;;0.00;44.60;;;;;;5060488;28;20397;-74
2022/12/13 10:27:44;;;;;;;44.83;24.10;;;0.10;44.50;;;;;;5061804;28;20409;-75
2022/12/13 10:30:23;;;;;;;47.65;25.30;;;0.00;46.30;;;;;;5062101;28;20382;-74
2022/12/13 10:32:54;;;;;;;49.13;26.88;;;0.20;45.20;;;;;;5064349;28;20377;-73
2022/12/13 10:35:26;;;;;;;44.28;24.65;;;0.30;45.00;;;;;;5065415;28;20486;-73
2022/12/13 10:37:53;;;;;;;43.65;24.17;;;0.50;44.80;;;;;;5066113;28;20390;-75
2022/12/13 10:40:47;;;;;;;46.28;24.75;;;0.60;42.50;;;;;;5060391;28;20459;-74
2022/12/13 10:43:20;;;;;;;44.72;23.73;;;0.80;43.30;;;;;;5061140;28;20932;-74
2022/12/13 10:45:54;;;;;;;44.00;23.90;;;0.90;40.50;;;;;;5057078;28;20500;-74
2022/12/13 10:48:23;;;;;;;45.08;25.10;;;1.00;39.80;;;;;;5041920;28;20408;-75
2022/12/13 10:51:09;;;;;;;43.90;23.35;;;1.20;40.30;;;;;;5051408;28;20385;-75
2022/12/13 10:53:59;;;;;;;40.40;22.02;;;1.30;38.30;;;;;;5051479;28;20381;-74
2022/12/13 10:56:36;;;;;;;50.58;29.58;;;1.30;37.60;;;;;;5051727;28;20400;-73
2022/12/13 10:59:38;;;;;;;45.85;23.50;;;1.20;39.40;;;;;;5051517;28;20385;-74
2022/12/13 11:02:40;;;;;;;46.53;23.88;;;1.30;37.70;;;;;;5052903;28;20746;-75
2022/12/13 11:05:36;;;;;;;40.97;21.95;;;1.30;39.30;;;;;;4970232;28;20415;-75
2022/12/13 11:08:22;;;;;;;46.03;23.83;;;1.30;39.30;;;;;;5024395;28;20462;-73
2022/12/13 11:11:05;;;;;;;40.97;22.60;;;1.40;38.40;;;;;;5040632;28;20405;-74
2022/12/13 11:13:43;;;;;;;36.23;20.17;;;1.50;36.90;;;;;;5067800;28;20488;-74
2022/12/13 11:16:30;;;;;;;40.23;21.50;;;1.60;35.10;;;;;;5067453;28;20731;-74
2022/12/13 11:19:15;;;;;;;47.35;22.90;;;1.60;36.20;;;;;;5060351;28;20401;-75
2022/12/13 11:21:49;;;;;;;38.55;22.00;;;1.60;36.50;;;;;;5055452;28;20434;-74
2022/12/13 11:24:22;;;;;;;38.60;22.45;;;1.70;36.70;;;;;;5053188;28;20385;-75
2022/12/13 11:26:57;;;;;;;41.42;20.73;;;1.80;34.80;;;;;;5055393;28;20390;-73
2022/12/13 11:29:38;;;;;;;39.70;21.92;;;1.80;35.10;;;;;;5044535;28;20393;-73
2022/12/13 11:32:20;;;;;;;36.65;20.73;;;1.80;35.20;;;;;;5054828;28;20397;-75
2022/12/13 11:34:56;;;;;;;39.83;21.75;;;1.90;34.70;;;;;;5056609;28;20409;-73
2022/12/13 11:37:46;;;;;;;41.60;20.67;;;2.00;35.50;;;;;;5057095;28;20393;-75
2022/12/13 11:40:19;;;;;;;38.28;21.05;;;2.20;34.00;;;;;;5058044;28;20389;-74
2022/12/13 11:43:03;;;;;;;36.70;21.15;;;2.30;33.00;;;;;;5055306;28;20908;-73
2022/12/13 11:45:42;;;;;;;40.58;18.63;;;2.30;32.80;;;;;;5056984;28;20397;-75
2022/12/13 11:48:07;;;;;;;35.77;20.40;;;2.30;31.90;;;;;;5059876;28;20510;-75
2022/12/13 11:50:44;;;;;;;39.60;21.77;;;2.10;33.10;;;;;;5066570;28;20750;-75
2022/12/13 11:53:23;;;;;;;41.40;22.27;;;2.10;34.30;;;;;;5046121;28;20379;-75
2022/12/13 11:56:03;;;;;;;42.00;22.05;;;2.30;34.10;;;;;;5057172;28;20417;-75
2022/12/13 11:58:54;;;;;;;39.10;19.90;;;2.40;32.80;;;;;;5058235;28;20397;-74
2022/12/13 12:01:26;;;;;;;40.00;21.27;;;2.30;32.50;;;;;;5016104;28;20389;-74
2022/12/13 12:04:12;;;;;;;35.33;19.45;;;2.30;31.50;;;;;;5056400;28;20825;-74
2022/12/13 12:06:47;;;;;;;39.53;21.45;;;2.60;30.80;;;;;;5060726;28;20386;-74
2022/12/13 12:09:16;;;;;;;34.80;18.88;;;2.80;30.70;;;;;;5063747;28;20456;-76
2022/12/13 12:11:52;;;;;;;40.15;21.48;;;2.80;28.90;;;;;;5060272;28;20381;-76
2022/12/13 12:14:24;;;;;;;34.22;19.15;;;2.80;29.30;;;;;;5049475;28;20401;-75
2022/12/13 12:16:56;;;;;;;35.90;19.02;;;2.80;28.50;;;;;;5052094;28;20401;-75
2022/12/13 12:19:30;;;;;;;37.80;21.45;;;2.70;28.40;;;;;;5059052;28;20385;-74
2022/12/13 12:21:56;;;;;;;42.10;22.85;;;2.80;28.80;;;;;;5055932;28;20377;-73
2022/12/13 12:24:27;;;;;;;36.40;21.00;;;2.80;29.50;;;;;;5054705;28;20788;-73
2022/12/13 12:27:29;;;;;;;40.03;21.53;;;3.00;30.20;;;;;;5062347;28;20490;-75
2022/12/13 12:30:18;;;;;;;36.45;19.40;;;3.10;29.50;;;;;;5076980;28;20394;-77
2022/12/13 12:33:23;;;;;;;41.50;21.73;;;3.20;28.50;;;;;;5075269;28;20392;-77
2022/12/13 12:36:22;;;;;;;36.20;19.57;;;3.30;28.90;;;;;;5062999;28;20398;-78
2022/12/13 12:39:18;;;;;;;32.00;18.27;;;3.30;27.20;;;;;;5058377;28;20405;-77
2022/12/13 12:42:02;;;;;;;31.13;18.67;;;3.30;26.30;;;;;;5063581;28;20408;-77
2022/12/13 12:44:43;;;;;;;37.80;19.50;;;3.40;27.30;;;;;;5062213;28;20433;-77
2022/12/13 12:47:40;;;;;;;39.85;21.52;;;3.50;27.80;;;;;;5061404;28;20437;-77